Latest Weather Observations for Marrangaroo (Defence)

IDN60801

Issued at 8:03 pm EST Tuesday 19 June 2018 (issued every 10 minutes, with the page automatically refreshed every 10 minutes)

About weather observations | Map of weather stations | Latest weather observations for NSW | Other Formats
Station Details ID: 063308 Name: MARRANGAROO (DEFENCE) Lat: -33.43 Lon: 150.13 Height: 955.0 m
Data from the previous 72 hours. | See also: Recent months at Marrangaroo (Defence)
Date/Time
EST
Temp
°C
App
Temp
°C
Dew
Point
°C
Rel
Hum
%
Delta-T
°C
Wind Press
QNH
hPa
Press
MSL
hPa
Rain since
9am
mm
Dir  Spd
km/h
Gust
km/h
Spd
kts
Gust
kts
19/08:00pm 6.7 4.0 3.9 82 1.3 SSE 7 17 4 9 - - 1.2
19/07:30pm 6.8 4.2 3.4 79 1.5 SSE 6 17 3 9 - - 1.2
19/07:00pm 6.8 4.0 3.4 79 1.5 SW 7 13 4 7 - - 1.2
19/06:30pm 6.7 4.5 3.5 80 1.4 WSW 4 15 2 8 - - 1.2
19/06:00pm 6.7 3.9 3.1 78 1.6 S 7 13 4 7 - - 1.2
19/05:30pm 6.5 3.7 2.9 78 1.6 S 7 19 4 10 - - 1.2
19/05:00pm 6.3 3.5 3.3 81 1.3 SSE 7 13 4 7 - - 1.2
19/04:30pm 6.7 2.4 3.5 80 1.4 SSE 15 28 8 15 - - 1.2
19/04:00pm 6.8 3.5 4.5 85 1.1 S 11 20 6 11 - - 1.2
19/03:30pm 6.6 3.3 4.6 87 0.9 S 11 26 6 14 - - 1.2
19/03:00pm 6.7 3.8 4.5 86 1.0 SSE 9 19 5 10 - - 1.0
19/02:30pm 8.2 5.3 4.8 79 1.6 S 9 19 5 10 - - 0.2
19/02:00pm 7.2 3.4 4.0 80 1.5 SSE 13 22 7 12 - - 0.2
19/01:30pm 8.4 4.4 2.8 68 2.5 S 13 22 7 12 - - 0.0
19/01:00pm 9.5 5.6 3.3 65 2.8 SSE 13 24 7 13 - - 0.0
19/12:30pm 8.4 4.4 2.6 67 2.6 S 13 28 7 15 - - 0.0
19/12:00pm 8.0 3.7 3.3 72 2.1 SSE 15 24 8 13 - - 0.0
19/11:30am 7.8 3.2 3.7 75 1.9 SSE 17 28 9 15 - - 0.0
19/11:00am 7.4 3.6 3.8 78 1.6 S 13 28 7 15 - - 0.0
19/10:30am 6.8 3.2 3.2 78 1.6 SSE 11 22 6 12 - - 0.0
19/10:00am 6.5 3.9 3.1 79 1.5 SSE 6 17 3 9 - - 0.0
19/09:30am 6.1 2.5 3.1 81 1.3 SSE 11 22 6 12 - - 0.0
19/09:00am 5.8 2.6 3.1 83 1.2 S 9 19 5 10 - - 0.4
19/08:30am 5.5 1.5 3.0 84 1.1 SSE 13 28 7 15 - - 0.4
19/08:00am 5.1 1.5 2.8 85 1.0 SSE 11 19 6 10 - - 0.4
19/07:30am 4.7 1.0 2.6 86 0.9 SSE 11 22 6 12 - - 0.4
19/07:00am 4.3 1.3 2.2 86 0.9 SE 7 15 4 8 - - 0.4
19/06:30am 4.1 0.7 2.0 86 0.9 S 9 19 5 10 - - 0.4
19/06:00am 3.5 0.7 2.0 90 0.6 S 6 13 3 7 - - 0.4
19/05:30am 3.3 0.2 1.5 88 0.7 S 7 19 4 10 - - 0.4
19/05:00am 3.0 1.2 1.1 87 0.8 CALM 0 6 0 3 - - 0.2
19/04:30am 2.6 0.0 0.8 88 0.7 SSW 4 9 2 5 - - 0.2
19/04:00am 2.4 0.1 0.6 88 0.7 SSW 2 7 1 4 - - 0.0
19/03:30am 1.2 -1.1 0.3 94 0.4 SW 2 7 1 4 - - 0.0
19/03:00am 0.0 -2.1 -1.1 92 0.4 CALM 0 0 0 0 - - 0.0
19/02:30am 0.2 -2.4 -1.4 89 0.6 SW 2 4 1 2 - - 0.0
19/02:00am 0.9 -2.1 -1.7 83 1.0 SW 4 7 2 4 - - 0.0
19/01:30am 1.8 -1.0 -0.3 86 0.8 SSW 4 9 2 5 - - 0.0
19/01:00am -1.0 -3.3 -2.1 92 0.4 CALM 0 2 0 1 - - 0.0
19/12:30am -0.2 -2.4 -1.5 91 0.5 CALM 0 0 0 0 - - 0.0
19/12:00am 1.1 -1.2 -2.0 80 1.2 CALM 0 0 0 0 - - 0.0
 
Date/Time
EST
Temp
°C
App
Temp
°C
Dew
Point
°C
Rel
Hum
%
Delta-T
°C
Wind Press
QNH
hPa
Press
MSL
hPa
Rain since
9am
mm
Dir  Spd
km/h
Gust
km/h
Spd
kts
Gust
kts
18/11:30pm 3.7 0.3 -0.3 75 1.6 SW 7 13 4 7 - - 0.0
18/11:00pm 3.9 1.6 0.2 77 1.5 S 2 6 1 3 - - 0.0
18/10:30pm 4.8 1.8 0.9 76 1.6 SSW 6 11 3 6 - - 0.0
18/10:00pm 5.3 1.9 1.8 78 1.5 SSW 9 20 5 11 - - 0.0
18/09:30pm 5.5 2.8 2.5 81 1.3 SW 6 15 3 8 - - 0.0
18/09:00pm 5.8 2.9 2.8 81 1.3 WSW 7 13 4 7 - - 0.0
18/08:30pm 5.6 2.9 2.9 83 1.2 WSW 6 11 3 6 - - 0.0
18/08:00pm 5.6 2.8 2.9 83 1.2 WSW 7 17 4 9 - - 0.0
18/07:30pm 5.7 2.9 2.9 82 1.2 SW 7 17 4 9 - - 0.0
18/07:00pm 5.8 3.0 3.0 82 1.2 WSW 7 15 4 8 - - 0.0
18/06:30pm 5.6 2.8 2.9 83 1.2 SW 7 19 4 10 - - 0.0
18/06:00pm 5.8 3.1 2.8 81 1.3 WSW 6 9 3 5 - - 0.0
18/05:30pm 5.8 3.5 2.8 81 1.3 SW 4 9 2 5 - - 0.0
18/05:00pm 6.7 3.4 2.6 75 1.8 SW 9 17 5 9 - - 0.0
18/04:30pm 7.4 3.8 2.7 72 2.1 SW 11 19 6 10 - - 0.0
18/04:00pm 7.6 3.9 2.3 69 2.3 WSW 11 19 6 10 - - 0.0
18/03:30pm 7.9 4.2 2.2 67 2.5 WSW 11 20 6 11 - - 0.0
18/03:00pm 9.0 5.2 1.7 60 3.2 SW 11 22 6 12 - - 0.0
18/02:30pm 8.2 4.8 2.0 65 2.7 WSW 9 17 5 9 - - 0.0
18/02:00pm 8.0 3.8 1.8 65 2.7 SW 13 24 7 13 - - 0.0
18/01:30pm 9.1 5.5 2.7 64 2.9 WSW 11 24 6 13 - - 0.0
18/01:00pm 8.4 4.6 1.6 62 3.0 WSW 11 22 6 12 - - 0.0
18/12:30pm 8.8 5.0 1.7 61 3.1 SW 11 20 6 11 - - 0.0
18/12:00pm 8.9 5.0 1.1 58 3.4 SSW 11 20 6 11 - - 0.0
18/11:30am 7.9 5.0 2.8 70 2.3 SW 7 17 4 9 - - 0.0
18/11:00am 7.0 4.3 2.7 74 1.9 SW 6 11 3 6 - - 0.0
18/10:30am 6.2 2.4 1.7 73 1.9 SW 11 22 6 12 - - 0.0
18/10:00am 5.8 2.4 2.1 77 1.6 SW 9 17 5 9 - - 0.0
18/09:30am 4.7 1.7 1.7 81 1.3 WSW 7 17 4 9 - - 0.0
18/09:00am 4.2 0.8 1.6 83 1.1 WSW 9 17 5 9 - - 1.8
18/08:30am 4.5 0.6 1.4 80 1.3 SW 11 17 6 9 - - 1.8
18/08:00am 4.3 0.8 1.2 80 1.3 SW 9 20 5 11 - - 1.8
18/07:30am 4.3 1.1 1.0 79 1.4 WSW 7 19 4 10 - - 1.8
18/07:00am 4.3 0.8 1.0 79 1.4 SW 9 20 5 11 - - 1.8
18/06:30am 4.2 0.7 1.1 80 1.3 SW 9 19 5 10 - - 1.8
18/06:00am 4.1 1.0 1.1 81 1.2 WSW 7 20 4 11 - - 1.8
18/05:30am 4.0 0.1 1.0 81 1.2 WSW 11 24 6 13 - - 1.6
18/05:00am 4.0 0.9 1.5 84 1.0 SW 7 13 4 7 - - 1.6
18/04:30am 4.0 0.9 1.5 84 1.0 SW 7 15 4 8 - - 1.6
18/04:00am 4.0 0.6 1.9 86 0.9 SW 9 17 5 9 - - 1.6
18/03:30am 3.8 0.5 2.3 90 0.6 SW 9 28 5 15 - - 1.6
18/03:00am 3.8 0.1 2.5 91 0.6 SW 11 20 6 11 - - 1.6
18/02:30am 3.9 -0.1 2.7 92 0.5 SW 13 26 7 14 - - 1.6
18/02:00am 3.9 -0.1 2.6 91 0.6 WSW 13 26 7 14 - - 1.6
18/01:30am 3.9 0.2 2.4 90 0.6 WSW 11 26 6 14 - - 1.6
18/01:00am 4.0 -0.1 2.4 89 0.7 WSW 13 26 7 14 - - 1.6
18/12:30am 3.9 -0.6 2.3 89 0.7 WSW 15 39 8 21 - - 1.6
18/12:00am 3.2 0.9 2.5 95 0.3 W 4 7 2 4 - - 1.6
 
Date/Time
EST
Temp
°C
App
Temp
°C
Dew
Point
°C
Rel
Hum
%
Delta-T
°C
Wind Press
QNH
hPa
Press
MSL
hPa
Rain since
9am
mm
Dir  Spd
km/h
Gust
km/h
Spd
kts
Gust
kts
17/11:30pm 3.3 0.3 2.3 93 0.4 W 7 15 4 8 - - 1.4
17/11:00pm 3.3 0.0 2.3 93 0.4 W 9 17 5 9 - - 1.2
17/10:30pm 3.2 0.2 2.0 92 0.5 NW 7 19 4 10 - - 1.2
17/10:00pm 2.8 0.0 1.9 94 0.4 WNW 6 11 3 6 - - 1.0
17/09:30pm 2.6 -0.8 1.6 93 0.4 WNW 9 19 5 10 - - 0.8
17/09:00pm 2.6 -1.3 1.1 90 0.6 WNW 11 20 6 11 - - 0.8
17/08:30pm 2.6 -0.5 1.1 90 0.6 WNW 7 15 4 8 - - 0.8
17/08:00pm 2.7 -0.3 1.1 89 0.7 WNW 6 11 3 6 - - 0.6
17/07:30pm 2.6 -0.9 1.0 89 0.6 WNW 9 20 5 11 - - 0.6
17/07:00pm 2.6 -0.9 1.3 91 0.5 WNW 9 19 5 10 - - 0.4
17/06:30pm 2.8 -1.1 1.2 89 0.7 W 11 26 6 14 - - 0.2
17/06:00pm 3.3 -0.2 1.0 85 0.9 W 9 24 5 13 - - 0.2
17/05:30pm 3.4 -0.2 0.8 83 1.1 WNW 9 24 5 13 - - 0.2
17/05:00pm 3.5 -0.1 0.7 82 1.1 WNW 9 22 5 12 - - 0.2
17/04:30pm 3.5 -0.1 0.6 81 1.2 NW 9 20 5 11 - - 0.2
17/04:00pm 3.8 0.2 0.5 79 1.3 WNW 9 17 5 9 - - 0.2
17/03:30pm 3.6 -0.4 0.5 80 1.3 WNW 11 26 6 14 - - 0.2
17/03:00pm 3.4 -0.2 0.6 82 1.1 WNW 9 19 5 10 - - 0.2
17/02:30pm 3.3 -0.3 0.7 83 1.1 NW 9 30 5 16 - - 0.2
17/02:00pm 3.3 -0.8 0.0 79 1.3 WNW 11 20 6 11 - - 0.2
17/01:30pm 3.5 -0.9 0.2 79 1.3 WNW 13 26 7 14 - - 0.2
17/01:00pm 3.0 -2.3 -0.3 79 1.3 WNW 17 33 9 18 - - 0.2
17/12:30pm 3.1 -1.0 -0.5 77 1.4 WNW 11 20 6 11 - - 0.2
17/12:00pm 3.2 -1.7 -0.6 76 1.5 W 15 24 8 13 - - 0.2
17/11:30am 3.1 -2.2 -0.5 77 1.4 W 17 39 9 21 - - 0.2
17/11:00am 3.0 -1.5 -0.3 79 1.3 WNW 13 26 7 14 - - 0.2
17/10:30am 3.0 -1.5 -0.3 79 1.3 WNW 13 30 7 16 - - 0.2
17/10:00am 2.4 -2.1 -0.5 81 1.1 W 13 28 7 15 - - 0.0
17/09:30am 1.9 -3.0 -0.8 82 1.0 W 15 33 8 18 - - 0.0
17/09:00am 1.7 -2.4 -0.2 87 0.7 W 11 28 6 15 - - 2.2
17/08:30am 1.6 -2.1 -0.2 88 0.7 WNW 9 20 5 11 - - 2.2
17/08:00am 1.4 -2.6 0.2 92 0.5 WNW 11 24 6 13 - - 2.2
17/07:30am 1.2 -2.5 -0.1 91 0.5 WNW 9 22 5 12 - - 2.2
17/07:00am 1.2 -2.5 -0.1 91 0.5 W 9 20 5 11 - - 2.2
17/06:30am 1.1 -3.0 -0.1 92 0.5 WNW 11 24 6 13 - - 2.2
17/06:00am 0.8 -4.0 -0.1 94 0.3 NW 15 32 8 17 - - 1.8
17/05:30am 1.1 -2.6 -0.1 92 0.5 NW 9 15 5 8 - - 1.6
17/05:00am 1.7 -2.0 -0.2 87 0.7 WNW 9 17 5 9 - - 1.4
17/04:30am 2.0 -1.8 -0.6 83 1.0 WNW 9 17 5 9 - - 1.4
17/04:00am 1.9 -1.6 -1.2 80 1.2 W 7 20 4 11 - - 1.4
17/03:30am 1.7 -1.7 -0.7 84 0.9 W 7 15 4 8 - - 1.4
17/03:00am 1.9 -2.2 -0.5 84 0.9 W 11 26 6 14 - - 1.2
17/02:30am 2.2 -1.6 -0.5 82 1.0 W 9 19 5 10 - - 1.2
17/02:00am 1.8 -2.3 -0.1 87 0.7 W 11 26 6 14 - - 1.2
17/01:30am 2.4 -2.2 -0.7 80 1.2 W 13 26 7 14 - - 1.2
17/01:00am 2.4 -1.7 -0.5 81 1.1 W 11 19 6 10 - - 1.2
17/12:30am 2.1 -2.4 -0.5 83 1.0 W 13 28 7 15 - - 1.2
17/12:00am 2.1 -2.4 -0.2 85 0.9 WNW 13 28 7 15 - - 1.2
 
Date/Time
EST
Temp
°C
App
Temp
°C
Dew
Point
°C
Rel
Hum
%
Delta-T
°C
Wind Press
QNH
hPa
Press
MSL
hPa
Rain since
9am
mm
Dir  Spd
km/h
Gust
km/h
Spd
kts
Gust
kts
16/11:30pm 1.9 -1.7 0.7 92 0.5 W 9 19 5 10 - - 1.2
16/11:00pm 2.1 -1.5 0.6 90 0.6 WNW 9 20 5 11 - - 1.0
16/10:30pm 2.5 -1.0 1.2 91 0.5 WNW 9 20 5 11 - - 1.0
16/10:00pm 2.9 -1.0 1.4 90 0.6 WNW 11 22 6 12 - - 0.8
16/09:30pm 3.4 -0.8 1.8 89 0.7 WNW 13 26 7 14 - - 0.8
16/09:00pm 3.4 -0.1 1.4 87 0.8 WNW 9 22 5 12 - - 0.2
16/08:30pm 4.6 -0.8 1.1 78 1.5 WNW 19 39 10 21 - - 0.0

Other Formats:

Comma delimited format used in spreadsheet applications
http://www.bom.gov.au/fwo/IDN60801/IDN60801.95686.axf

JavaScript Object Notation format (JSON) in row-major order
http://www.bom.gov.au/fwo/IDN60801/IDN60801.95686.json